• Join FlightAware (Why Join?)
  • Login
  • US Flag 
06:29AM EDT


 

Airport Tracker/Info


-or-


 

Live Flight TrackerFlight Track Log ✈ VH-BDP ✈ 03-Aug-2013 ✈ YPJT / JAD - YPJT / JAD

Flight Track Log - Related Links

Times and Time Zones

All times are in EDT time to prevent confusion due to time zone crossing. See the VH-BDP flight status page for this flight to view local times or setup timezone preferences in your user account.

Time Position Orientation Groundspeed Altitude Reporting Facility
EDT Latitude Longitude Course Direction KTS MPH feet Rate Location/Type
10:04PM -32.3445 116.9130 322° Northwest 3,000  Level Aus ATC (Calculated)
10:04PM -31.8062 116.4251 220° Southwest 104 120 3,100  Climbing Aus ATC (RADAR)
10:05PM -31.8195 116.4120 220° Southwest 106 122 3,000  Descending Aus ATC (RADAR)
10:06PM -31.8367 116.3919 225° Southwest 117 135 3,100 60 Climbing Aus ATC (RADAR)
10:06PM -31.8484 116.3776 226° Southwest 119 137 3,100  Level Aus ATC (RADAR)
10:08PM -31.8788 116.3374 228° Southwest 120 138 3,100  Level Aus ATC (RADAR)
10:09PM -31.9079 116.3051 223° Southwest 122 140 3,100 -60 Level Aus ATC (RADAR)
10:09PM -31.9221 116.2888 224° Southwest 121 139 3,000  Descending Aus ATC (RADAR)
10:10PM -31.9361 116.2725 225° Southwest 120 138 3,100  Climbing Aus ATC (RADAR)
10:11PM -31.9590 116.2537 215° Southwest 122 140 3,000 -60 Descending Aus ATC (RADAR)
10:12PM -32.0091 116.2196 210° Southwest 123 142 3,000  Level Aus ATC (RADAR)
10:13PM -32.0371 116.2017 208° Southwest 124 143 3,000 60 Level Aus ATC (RADAR)
10:14PM -32.0539 116.1889 213° Southwest 123 142 3,100  Climbing Aus ATC (RADAR)
10:15PM -32.0739 116.1764 208° Southwest 124 143 3,000 -120 Descending Aus ATC (RADAR)
10:15PM -32.0960 116.1653 203° Southwest 127 146 3,000  Level Aus ATC (RADAR)
10:16PM -32.1199 116.1521 205° Southwest 124 143 3,000  Level Aus ATC (RADAR)
10:20PM -32.2167 116.0333 360° North 1,500 -360 Descending Aus ATC (Calculated)
10:20PM -32.2167 116.0333 313° West 1,500  Level Aus ATC (Calculated)
10:22PM -32.1863 115.9944 231° Southwest  Level Estimated
10:23PM -32.2094 116.0240 133° Southeast  Level FlightAware Approximate
10:24PM -32.2324 116.0535 133° Southeast  Level FlightAware Approximate
10:24PM -32.1689 115.9339 343° North 100  Level Aus ATC (Calculated)
10:24PM -32.1597 115.9306 324° Northwest 100  Level Aus ATC (Calculated)
10:25PM -32.1332 115.9075 330° Northwest 100  Level Aus ATC (Calculated)
10:26PM -32.1174 115.8969 300° West  Level Estimated
10:27PM -32.1702 115.9349 148° Southeast  Level FlightAware Approximate
10:28PM -32.1649 115.9324 343° North  Level FlightAware Approximate
10:29PM -32.1360 115.9117 326° Northwest  Level FlightAware Approximate
10:30PM -32.1077 115.8894 326° Northwest  Level FlightAware Approximate
10:31PM -32.0975 115.8812 326° Northwest  Level FlightAware Approximate
10:32PM -32.0975 115.8811 326° Northwest  Level Estimated
10:33PM -32.0975 115.8811 326° Northwest  Level Estimated
10:34PM -32.0975 115.8811 326° Northwest  Level Estimated
10:35PM -32.0975 115.8811 326° Northwest  Level Estimated
10:36PM -32.0975 115.8811 326° Northwest  Level Estimated
10:37PM -32.0975 115.8811 326° Northwest  Level Estimated
10:38PM -32.0975 115.8811 326° Northwest  Level Estimated
10:39PM -32.0975 115.8811 326° Northwest  Level Estimated
10:40PM -32.0975 115.8811 326° Northwest  Level Estimated
10:41PM -32.0975 115.8811 326° Northwest  Level Estimated
10:42PM -32.0975 115.8811 326° Northwest  Level Estimated
10:43PM -32.0975 115.8811 326° Northwest  Level Estimated
10:44PM -32.0975 115.8811 326° Northwest  Level Estimated
10:45PM -32.0975 115.8811 326° Northwest  Level Estimated
10:46PM -32.0975 115.8811 326° Northwest  Level Estimated
10:47PM -32.0975 115.8811 326° Northwest  Level Estimated
10:48PM -32.0975 115.8811 326° Northwest  Level Estimated
10:49PM -32.0975 115.8811 326° Northwest  Level Estimated
10:50PM -32.0975 115.8811 326° Northwest  Level Estimated
10:51PM -32.0975 115.8811 326° Northwest  Level Estimated
10:52PM -32.0975 115.8811 326° Northwest  Level Estimated
10:53PM -32.0975 115.8811 326° Northwest  Level Estimated
10:54PM -32.0975 115.8811 326° Northwest  Level Estimated
10:55PM -32.0975 115.8811 326° Northwest  Level Estimated
10:56PM -32.0975 115.8811 326° Northwest  Level Estimated
10:57PM -32.0975 115.8811 326° Northwest  Level Estimated
10:58PM -32.0975 115.8811 326° Northwest  Level Estimated
10:59PM -32.0975 115.8811 326° Northwest  Level Estimated
11:00PM -32.0975 115.8811 326° Northwest  Level Estimated
11:01PM -32.0975 115.8811 326° Northwest  Level Estimated
11:02PM -32.0975 115.8811 326° Northwest  Level Estimated
11:03PM -32.0975 115.8811 326° Northwest  Level Estimated
11:04PM -32.0975 115.8811 326° Northwest  Level Estimated
11:05PM -32.0975 115.8811 326° Northwest  Level Estimated
11:06PM -32.0975 115.8811 326° Northwest  Level Estimated
11:07PM -32.0975 115.8811 326° Northwest  Level Estimated
11:08PM -32.0975 115.8811 326° Northwest  Level Estimated
11:09PM -32.0975 115.8811 326° Northwest  Level Estimated
11:10PM -32.0975 115.8811 326° Northwest  Level Estimated
11:11PM -32.0975 115.8811 326° Northwest  Level Estimated
11:12PM -32.0975 115.8811 326° Northwest  Level Estimated
11:13PM -32.0975 115.8811 326° Northwest  Level Estimated
11:14PM -32.0975 115.8811 326° Northwest  Level Estimated
11:15PM -32.0975 115.8811 326° Northwest  Level Estimated
11:16PM -32.0975 115.8811 326° Northwest  Level Estimated
11:17PM -32.0975 115.8811 326° Northwest  Level Estimated
11:18PM -32.0975 115.8811 326° Northwest  Level Estimated
11:19PM -32.0975 115.8811 326° Northwest  Level Estimated
11:20PM -32.0975 115.8811 326° Northwest  Level Estimated
11:21PM -32.0975 115.8811 326° Northwest  Level Estimated
11:22PM -32.0975 115.8811 326° Northwest  Level Estimated
11:23PM -32.0975 115.8811 326° Northwest  Level Estimated
11:24PM -32.0975 115.8811 326° Northwest  Level Estimated
11:25PM -32.0975 115.8811 326° Northwest  Level Estimated
11:26PM -32.0975 115.8811 326° Northwest  Level Estimated
11:27PM -32.0975 115.8811 326° Northwest  Level Estimated
11:28PM -32.0975 115.8811 326° Northwest  Level Estimated
11:29PM -32.0975 115.8811 326° Northwest  Level Estimated
11:30PM -32.0975 115.8811 326° Northwest  Level Estimated
11:31PM -32.0975 115.8811 326° Northwest  Level Estimated
11:32PM -32.0975 115.8811 326° Northwest  Level Estimated
11:33PM -32.0975 115.8811 326° Northwest  Level Estimated
11:34PM -32.0975 115.8811 326° Northwest  Level Estimated
11:35PM -32.0975 115.8811 326° Northwest  Level Estimated
11:36PM -32.0975 115.8811 326° Northwest  Level Estimated
11:37PM -32.0975 115.8811 326° Northwest  Level Estimated
11:38PM -32.0975 115.8811 326° Northwest  Level Estimated
11:39PM -32.0975 115.8811 326° Northwest  Level Estimated
11:40PM -32.0975 115.8811 326° Northwest  Level Estimated
11:41PM -32.0975 115.8811 326° Northwest  Level Estimated
11:42PM -32.0975 115.8811 326° Northwest  Level Estimated
11:43PM -32.0975 115.8811 326° Northwest  Level Estimated
11:44PM -32.0975 115.8811 326° Northwest  Level Estimated
11:45PM -32.0975 115.8811 326° Northwest  Level Estimated
11:46PM -32.0975 115.8811 326° Northwest  Level Estimated
11:47PM -32.0975 115.8811 326° Northwest  Level Estimated
11:48PM -32.0975 115.8811 326° Northwest  Level Estimated
11:49PM -32.0975 115.8811 326° Northwest  Level Estimated
11:50PM -32.0975 115.8811 326° Northwest  Level Estimated
11:51PM -32.0975 115.8811 326° Northwest  Level Estimated
11:52PM -32.0975 115.8811 326° Northwest  Level Estimated
11:53PM -32.0975 115.8811 326° Northwest  Level Estimated